CheckWX is a tool to help pilots better visualize weather data.  It is not intended as a substitute for an official pre-flight weather briefing.

03:19:54 UTC

KGLH METAR
Greenville Mid-Delta Airport
Greenville, Mississippi, USA
Current

27 mins ago

KGLH 180253Z AUTO 17010KT 10SM OVC014 17/14 A2994 RMK AO2 SLP144 T01670144 53011
Observed
Feb-18 @ 02:53 UTC
Wind
  • 170° at 10 KTS
Visibility
10 SM
Flight Rules
MVFR
Cloud Levels
  • Overcast at 1,400' AGL
Temperature
17°C / 63°F
Dewpoint
14°C / 57°F
Humidity
83%
Altimeter
29.94" Hg
Pressure
1013.92 hPa
Previous

34 mins ago

KGLH 180246Z AUTO 17010KT 10SM OVC014 17/14 A2993 RMK AO2 T01670144
Observed
Feb-18 @ 02:46 UTC
Wind
  • 170° at 10 KTS
Visibility
10 SM
Flight Rules
MVFR
Cloud Levels
  • Overcast at 1,400' AGL
Temperature
17°C / 63°F
Dewpoint
14°C / 57°F
Humidity
83%
Altimeter
29.93" Hg
Pressure
1013.52 hPa
Previous

1 hour ago

KGLH 180153Z AUTO 17008KT 10SM OVC021 17/14 A2992 RMK AO2 SLP138 T01720139
Observed
Feb-18 @ 01:53 UTC
Wind
  • 170° at 8 KTS
Visibility
10 SM
Flight Rules
MVFR
Cloud Levels
  • Overcast at 2,100' AGL
Temperature
17°C / 63°F
Dewpoint
14°C / 57°F
Humidity
83%
Altimeter
29.92" Hg
Pressure
1013.22 hPa